createdAt,value
2019-02-18T00:00:11.396Z,2.50
2019-02-18T00:03:19.325Z,2.51
2019-02-18T00:06:25.720Z,2.60
2019-02-18T00:09:32.079Z,2.69
2019-02-18T00:12:38.445Z,2.58
2019-02-18T00:15:44.779Z,2.51
2019-02-18T00:18:51.276Z,2.59
2019-02-18T00:21:57.514Z,2.61
2019-02-18T00:25:03.890Z,2.61
2019-02-18T00:28:10.310Z,2.65
2019-02-18T00:31:16.653Z,2.67
2019-02-18T00:34:23.040Z,2.70
2019-02-18T00:37:29.322Z,2.67
2019-02-18T00:40:35.685Z,2.59
2019-02-18T00:43:42.034Z,2.66
2019-02-18T00:46:48.383Z,2.56
2019-02-18T00:49:54.717Z,2.56
2019-02-18T00:53:01.118Z,2.62
2019-02-18T00:56:07.560Z,2.59
2019-02-18T00:59:13.973Z,2.57
2019-02-18T01:02:20.310Z,2.63
2019-02-18T01:05:26.632Z,2.71
2019-02-18T01:08:32.877Z,2.75
2019-02-18T01:11:39.202Z,2.75
2019-02-18T01:14:45.616Z,2.75
2019-02-18T01:17:51.994Z,2.80
2019-02-18T01:20:58.284Z,2.76
2019-02-18T01:24:04.621Z,2.82
2019-02-18T01:27:11.015Z,2.70
2019-02-18T01:30:17.297Z,2.78
2019-02-18T01:33:23.691Z,2.84
2019-02-18T01:36:30.131Z,2.71
2019-02-18T01:39:36.369Z,2.70
2019-02-18T01:42:42.753Z,2.79
2019-02-18T01:45:49.291Z,2.76
2019-02-18T01:48:55.761Z,2.78
2019-02-18T01:52:02.028Z,2.87
2019-02-18T01:55:09.490Z,2.82
2019-02-18T01:58:16.061Z,2.74
2019-02-18T02:01:22.638Z,2.79
2019-02-18T02:04:29.049Z,2.84
2019-02-18T02:07:35.401Z,2.79
2019-02-18T02:10:41.753Z,2.79
2019-02-18T02:13:48.279Z,2.85
2019-02-18T02:16:54.594Z,2.86
2019-02-18T02:20:01.320Z,2.84
2019-02-18T02:23:07.828Z,2.88
2019-02-18T02:26:14.202Z,2.91
2019-02-18T02:29:21.606Z,2.94
2019-02-18T02:32:29.017Z,2.87
2019-02-18T02:35:35.265Z,2.76
2019-02-18T02:38:41.595Z,2.79
2019-02-18T02:41:48.057Z,2.92
2019-02-18T02:44:54.323Z,2.95
2019-02-18T02:48:00.679Z,2.96
2019-02-18T02:51:07.133Z,2.96
2019-02-18T02:54:13.464Z,3.01
2019-02-18T02:57:19.903Z,3.06
2019-02-18T03:00:26.570Z,3.02
2019-02-18T03:03:32.977Z,3.02
2019-02-18T03:06:39.281Z,3.02
2019-02-18T03:09:46.517Z,2.96
2019-02-18T03:12:52.769Z,3.03
2019-02-18T03:15:59.197Z,2.96
2019-02-18T03:19:05.662Z,2.95
2019-02-18T03:22:11.994Z,3.02
2019-02-18T03:25:27.275Z,2.97
2019-02-18T03:29:17.568Z,2.89
2019-02-18T03:32:24.286Z,2.98
2019-02-18T03:35:30.631Z,2.84
2019-02-18T03:38:37.161Z,2.87
2019-02-18T03:41:43.641Z,2.88
2019-02-18T03:44:49.990Z,2.95
2019-02-18T03:47:56.275Z,2.93
2019-02-18T03:51:02.608Z,2.84
2019-02-18T03:54:09.061Z,2.95
2019-02-18T03:57:15.414Z,2.93
2019-02-18T04:00:21.683Z,2.82
2019-02-18T04:03:28.207Z,2.86
2019-02-18T04:06:34.619Z,2.75
2019-02-18T04:09:41.025Z,2.75
2019-02-18T04:12:47.363Z,2.91
2019-02-18T04:15:53.622Z,2.92
2019-02-18T04:19:00.075Z,2.92
2019-02-18T04:22:06.365Z,2.94
2019-02-18T04:25:12.709Z,2.92
2019-02-18T04:28:19.204Z,2.86
2019-02-18T04:31:25.564Z,2.74
2019-02-18T04:34:32.002Z,2.84
2019-02-18T04:37:38.391Z,2.81
2019-02-18T04:40:44.764Z,2.90
2019-02-18T04:43:51.133Z,2.87
2019-02-18T04:46:57.460Z,2.91
2019-02-18T04:50:03.841Z,2.79
2019-02-18T04:53:10.203Z,2.66
2019-02-18T04:56:16.561Z,2.78
2019-02-18T04:59:22.937Z,2.76
2019-02-18T05:02:29.369Z,2.79
2019-02-18T05:05:35.926Z,2.86
2019-02-18T05:08:42.261Z,2.74
2019-02-18T05:11:48.637Z,2.77
2019-02-18T05:14:55.067Z,2.80
2019-02-18T05:18:02.534Z,2.76
2019-02-18T05:21:09.106Z,2.70
2019-02-18T05:24:15.554Z,2.76
2019-02-18T05:27:32.802Z,2.74
2019-02-18T05:30:30.639Z,2.70
2019-02-18T05:33:39.191Z,2.73
2019-02-18T05:36:46.036Z,2.75
2019-02-18T05:39:55.367Z,2.63
2019-02-18T05:43:00.906Z,2.63
2019-02-18T05:46:08.702Z,2.64
2019-02-18T05:49:22.049Z,2.63
2019-02-18T05:52:28.419Z,2.65
2019-02-18T05:55:34.966Z,2.64
2019-02-18T05:58:41.354Z,2.71
2019-02-18T06:01:47.799Z,2.66
2019-02-18T06:04:54.192Z,2.67
2019-02-18T06:08:01.873Z,2.74
2019-02-18T06:11:08.439Z,2.81
2019-02-18T06:14:15.100Z,2.80
2019-02-18T06:17:21.385Z,2.75
2019-02-18T06:20:27.866Z,2.72
2019-02-18T06:23:39.159Z,2.83
2019-02-18T06:26:45.574Z,2.70
2019-02-18T06:29:52.038Z,2.67
2019-02-18T06:33:01.018Z,2.69
2019-02-18T06:36:08.951Z,2.68
2019-02-18T06:39:17.205Z,2.52
2019-02-18T06:42:25.180Z,2.65
2019-02-18T06:45:50.703Z,2.58
2019-02-18T06:49:04.885Z,2.58
2019-02-18T06:52:11.229Z,2.50
2019-02-18T06:55:17.634Z,2.50
2019-02-18T06:58:30.434Z,2.52
2019-02-18T07:01:46.243Z,2.49
2019-02-18T07:05:13.145Z,2.54
2019-02-18T07:08:38.503Z,2.48
2019-02-18T07:11:54.770Z,2.54
2019-02-18T07:15:02.623Z,2.43
2019-02-18T07:18:09.069Z,2.47
2019-02-18T07:21:48.040Z,2.52
2019-02-18T07:24:54.406Z,2.51
2019-02-18T07:28:00.780Z,2.44
2019-02-18T07:31:07.150Z,2.52
2019-02-18T07:34:13.590Z,2.52
2019-02-18T07:37:20.011Z,2.47
2019-02-18T07:40:26.354Z,2.50
2019-02-18T07:43:32.704Z,2.53
2019-02-18T07:46:39.092Z,2.51
2019-02-18T07:49:45.466Z,2.50
2019-02-18T07:52:51.791Z,2.50
2019-02-18T07:55:58.163Z,2.54
2019-02-18T07:59:04.608Z,2.52
2019-02-18T08:02:10.873Z,2.44
2019-02-18T08:05:17.156Z,2.44
2019-02-18T08:08:23.639Z,2.57
2019-02-18T08:11:29.992Z,2.60
2019-02-18T08:14:36.334Z,2.59
2019-02-18T08:17:42.660Z,2.61
2019-02-18T08:20:49.071Z,2.62
2019-02-18T08:24:00.056Z,2.65
2019-02-18T08:27:03.463Z,2.80
2019-02-18T08:30:11.147Z,2.71
2019-02-18T08:33:17.452Z,2.83
2019-02-18T08:36:23.814Z,2.83
2019-02-18T08:39:30.142Z,2.84
2019-02-18T08:42:36.418Z,2.98
2019-02-18T08:45:42.687Z,3.08
2019-02-18T08:48:49.156Z,3.05
2019-02-18T08:51:55.423Z,2.97
2019-02-18T08:55:01.691Z,2.80
2019-02-18T08:58:08.132Z,2.90
2019-02-18T09:01:14.472Z,2.89
2019-02-18T09:04:20.788Z,3.04
2019-02-18T09:07:27.127Z,2.77
2019-02-18T09:10:34.728Z,2.80
2019-02-18T09:13:41.180Z,2.84
2019-02-18T09:16:47.525Z,2.82
2019-02-18T09:19:53.889Z,2.69
2019-02-18T09:23:14.506Z,2.40
2019-02-18T09:26:20.958Z,2.28
2019-02-18T09:29:27.237Z,2.43
2019-02-18T09:32:33.598Z,2.31
2019-02-18T09:35:39.943Z,2.06
2019-02-18T09:38:46.202Z,2.10
2019-02-18T09:41:52.622Z,2.15
2019-02-18T09:44:58.975Z,2.12
2019-02-18T09:48:05.330Z,2.02
2019-02-18T09:51:11.667Z,2.02
2019-02-18T09:54:18.037Z,2.09
2019-02-18T09:57:25.377Z,2.03
2019-02-18T10:00:31.710Z,2.20
2019-02-18T10:03:38.121Z,2.13
2019-02-18T10:06:44.502Z,2.33
2019-02-18T10:09:50.789Z,2.33
2019-02-18T10:12:59.596Z,2.47
2019-02-18T10:16:05.256Z,2.67
2019-02-18T10:19:11.563Z,2.70
2019-02-18T10:22:17.992Z,2.87
2019-02-18T10:25:24.361Z,3.02
2019-02-18T10:28:30.717Z,3.02
2019-02-18T10:31:37.088Z,3.12
2019-02-18T10:34:43.418Z,3.23
2019-02-18T10:37:54.999Z,3.23
2019-02-18T10:41:06.454Z,3.33
2019-02-18T10:44:06.048Z,3.33
2019-02-18T10:47:12.473Z,3.40
2019-02-18T10:50:18.850Z,3.52
2019-02-18T10:53:26.065Z,3.61
2019-02-18T10:56:32.394Z,3.66
2019-02-18T10:59:38.633Z,3.76
2019-02-18T11:02:45.397Z,3.88
2019-02-18T11:05:51.772Z,3.98
2019-02-18T11:08:58.227Z,4.11
2019-02-18T11:12:04.552Z,4.23
2019-02-18T11:15:12.575Z,4.31
2019-02-18T11:18:19.194Z,4.42
2019-02-18T11:21:25.615Z,4.56
2019-02-18T11:24:32.098Z,4.56
2019-02-18T11:27:38.444Z,4.64
2019-02-18T11:30:44.753Z,4.77
2019-02-18T11:33:51.269Z,4.82
2019-02-18T11:36:57.607Z,4.88
2019-02-18T11:40:04.481Z,5.00
2019-02-18T11:43:10.911Z,5.02
2019-02-18T11:46:17.966Z,5.08
2019-02-18T11:49:24.335Z,5.12
2019-02-18T11:52:30.631Z,5.22
2019-02-18T11:55:39.061Z,5.24
2019-02-18T11:58:45.432Z,5.34
2019-02-18T12:01:51.801Z,5.31
2019-02-18T12:04:58.305Z,5.40
2019-02-18T12:08:04.612Z,5.39
2019-02-18T12:11:10.988Z,5.39
2019-02-18T12:14:17.479Z,5.39
2019-02-18T12:17:24.058Z,5.50
2019-02-18T12:20:30.424Z,5.42
2019-02-18T12:23:36.736Z,5.41
2019-02-18T12:26:43.131Z,5.45
2019-02-18T12:29:49.501Z,5.53
2019-02-18T12:32:56.127Z,5.48
2019-02-18T12:36:02.466Z,5.45
2019-02-18T12:39:13.053Z,5.50
2019-02-18T12:42:19.389Z,5.46
2019-02-18T12:45:25.761Z,5.44
2019-02-18T12:48:32.207Z,5.46
2019-02-18T12:51:38.548Z,5.55
2019-02-18T12:54:46.110Z,5.54
2019-02-18T12:57:52.679Z,5.63
2019-02-18T13:00:59.160Z,5.56
2019-02-18T13:04:05.733Z,5.48
2019-02-18T13:07:12.069Z,5.62
2019-02-18T13:10:18.452Z,5.53
2019-02-18T13:13:25.937Z,5.42
2019-02-18T13:16:32.362Z,5.50
2019-02-18T13:19:38.737Z,5.50
2019-02-18T13:22:45.152Z,5.51
2019-02-18T13:25:51.497Z,5.50
2019-02-18T13:28:57.981Z,5.53
2019-02-18T13:32:04.261Z,5.42
2019-02-18T13:35:10.594Z,5.42
2019-02-18T13:38:16.949Z,5.49
2019-02-18T13:41:23.324Z,5.41
2019-02-18T13:44:30.150Z,5.40
2019-02-18T13:47:36.565Z,5.33
2019-02-18T13:50:42.942Z,5.42
2019-02-18T13:53:49.419Z,5.26
2019-02-18T13:56:55.693Z,5.26
2019-02-18T14:00:02.124Z,5.32
2019-02-18T14:03:10.239Z,5.29
2019-02-18T14:06:16.575Z,5.32
2019-02-18T14:09:25.393Z,5.26
2019-02-18T14:12:31.622Z,5.28
2019-02-18T14:15:38.162Z,5.48
2019-02-18T14:18:44.458Z,5.27
2019-02-18T14:21:51.047Z,5.17
2019-02-18T14:24:57.395Z,5.24
2019-02-18T14:28:06.222Z,5.27
2019-02-18T14:31:12.556Z,5.21
2019-02-18T14:34:18.946Z,5.20
2019-02-18T14:37:25.315Z,5.17
2019-02-18T14:40:31.914Z,5.28
2019-02-18T14:43:38.403Z,5.24
2019-02-18T14:46:44.684Z,5.16
2019-02-18T14:49:51.239Z,5.08
2019-02-18T14:52:57.778Z,5.08
2019-02-18T14:56:05.938Z,5.05
2019-02-18T14:59:12.565Z,5.06
2019-02-18T15:02:18.913Z,4.98
2019-02-18T15:05:26.254Z,5.04
2019-02-18T15:08:35.038Z,4.93
2019-02-18T15:11:43.627Z,5.04
2019-02-18T15:14:50.073Z,5.02
2019-02-18T15:17:56.434Z,4.88
2019-02-18T15:21:02.883Z,4.86
2019-02-18T15:24:09.596Z,4.89
2019-02-18T15:27:15.846Z,4.87
2019-02-18T15:30:22.356Z,4.84
2019-02-18T15:33:28.877Z,4.72
2019-02-18T15:36:36.672Z,4.60
2019-02-18T15:39:43.266Z,4.70
2019-02-18T15:42:49.685Z,4.69
2019-02-18T15:45:56.231Z,4.82
2019-02-18T15:49:09.281Z,4.66
2019-02-18T15:52:17.201Z,4.77
2019-02-18T15:55:23.927Z,4.63
2019-02-18T15:58:30.409Z,4.72
2019-02-18T16:01:36.744Z,4.66
2019-02-18T16:04:43.146Z,4.70
2019-02-18T16:07:49.630Z,4.71
2019-02-18T16:10:56.059Z,4.62
2019-02-18T16:14:02.446Z,4.47
2019-02-18T16:17:08.805Z,4.63
2019-02-18T16:20:15.408Z,4.50
2019-02-18T16:23:21.735Z,4.41
2019-02-18T16:26:28.477Z,4.54
2019-02-18T16:29:34.870Z,4.49
2019-02-18T16:32:43.366Z,4.42
2019-02-18T16:35:59.441Z,4.55
2019-02-18T16:39:08.860Z,4.44
2019-02-18T16:42:17.541Z,4.44
2019-02-18T16:45:26.707Z,4.50
2019-02-18T16:52:53.405Z,4.29
2019-02-18T16:56:11.126Z,4.41
2019-02-18T16:59:21.463Z,4.29
2019-02-18T17:02:28.755Z,4.31
2019-02-18T17:05:35.222Z,4.24
2019-02-18T17:08:49.363Z,4.37
2019-02-18T17:16:13.476Z,4.29
2019-02-18T17:19:30.913Z,4.38
2019-02-18T17:22:34.802Z,4.31
2019-02-18T17:25:44.411Z,4.37
2019-02-18T17:28:58.673Z,4.33
2019-02-18T17:32:06.139Z,4.36
2019-02-18T17:40:41.697Z,4.47
2019-02-18T17:43:41.072Z,4.53
2019-02-18T17:59:41.471Z,3.60
2019-02-18T18:07:55.399Z,4.54
2019-02-18T18:10:53.197Z,4.56
2019-02-18T18:14:35.361Z,4.65
2019-02-18T18:17:34.069Z,4.66
2019-02-18T18:20:40.548Z,4.71
2019-02-18T18:23:47.052Z,4.79
2019-02-18T18:26:53.388Z,4.75
2019-02-18T18:29:59.868Z,4.75
2019-02-18T18:33:06.443Z,4.75
2019-02-18T18:36:13.263Z,4.62
2019-02-18T18:39:19.716Z,4.79
2019-02-18T18:42:26.164Z,4.61
2019-02-18T18:45:32.715Z,4.80
2019-02-18T18:48:40.219Z,4.62
2019-02-18T18:51:49.787Z,4.70
2019-02-18T18:54:59.353Z,4.72
2019-02-18T18:58:05.772Z,4.72
2019-02-18T19:01:12.454Z,4.72
2019-02-18T19:04:18.962Z,4.74
2019-02-18T19:07:28.234Z,4.68
2019-02-18T19:10:34.942Z,4.67
2019-02-18T19:13:42.218Z,4.56
2019-02-18T19:16:48.665Z,4.59
2019-02-18T19:19:57.830Z,4.46
2019-02-18T19:23:03.216Z,4.48
2019-02-18T19:26:09.513Z,4.50
2019-02-18T19:29:15.891Z,4.50
2019-02-18T19:32:22.328Z,4.42
2019-02-18T19:35:28.622Z,4.44
2019-02-18T19:38:34.953Z,4.40
2019-02-18T19:41:41.279Z,4.27
2019-02-18T19:44:50.820Z,4.38
2019-02-18T19:47:57.207Z,4.33
2019-02-18T19:51:06.298Z,4.26
2019-02-18T19:54:12.634Z,4.26
2019-02-18T19:57:19.080Z,4.34
2019-02-18T20:00:25.430Z,4.26
2019-02-18T20:03:31.780Z,4.32
2019-02-18T20:06:38.630Z,4.10
2019-02-18T20:09:45.330Z,4.22
2019-02-18T20:12:51.722Z,4.16
2019-02-18T20:15:58.077Z,3.93
2019-02-18T20:19:04.515Z,3.98
2019-02-18T20:22:10.834Z,3.96
2019-02-18T20:25:17.276Z,4.07
2019-02-18T20:28:23.891Z,3.99
2019-02-18T20:31:30.272Z,3.42
2019-02-18T20:34:36.769Z,4.01
2019-02-18T20:37:43.150Z,4.01
2019-02-18T20:40:49.546Z,4.05
2019-02-18T20:43:55.928Z,4.03
2019-02-18T20:47:02.272Z,4.07
2019-02-18T20:50:09.921Z,4.05
2019-02-18T20:53:16.309Z,3.97
2019-02-18T20:56:22.760Z,4.08
2019-02-18T20:59:29.196Z,4.03
2019-02-18T21:02:35.540Z,4.14
2019-02-18T21:05:41.908Z,4.05
2019-02-18T21:08:48.327Z,4.13
2019-02-18T21:11:54.694Z,4.16
2019-02-18T21:15:01.127Z,4.15
2019-02-18T21:18:07.558Z,4.15
2019-02-18T21:21:13.957Z,4.06
2019-02-18T21:24:20.239Z,3.96
2019-02-18T21:27:26.597Z,4.04
2019-02-18T21:30:33.086Z,4.18
2019-02-18T21:33:39.438Z,4.17
2019-02-18T21:36:45.887Z,4.23
2019-02-18T21:39:52.239Z,4.36
2019-02-18T21:42:58.852Z,4.34
2019-02-18T21:46:05.252Z,4.36
2019-02-18T21:49:12.586Z,4.23
2019-02-18T21:52:19.055Z,4.16
2019-02-18T21:55:25.340Z,4.16
2019-02-18T21:58:31.641Z,4.29
2019-02-18T22:01:38.039Z,4.28
2019-02-18T22:04:44.644Z,4.29
2019-02-18T22:07:51.025Z,4.34
2019-02-18T22:10:57.267Z,4.30
2019-02-18T22:14:03.652Z,4.19
2019-02-18T22:17:09.965Z,4.34
2019-02-18T22:20:17.298Z,4.47
2019-02-18T22:23:23.636Z,4.44
2019-02-18T22:26:29.921Z,4.46
2019-02-18T22:29:36.192Z,4.52
2019-02-18T22:32:42.514Z,4.43
2019-02-18T22:35:48.807Z,4.51
2019-02-18T22:38:55.317Z,4.53
2019-02-18T22:42:01.706Z,4.46
2019-02-18T22:45:08.618Z,4.39
2019-02-18T22:48:15.007Z,4.47
2019-02-18T22:51:21.452Z,4.46
2019-02-18T22:54:27.902Z,4.36
2019-02-18T22:57:34.248Z,4.44
2019-02-18T23:00:52.995Z,4.41
2019-02-18T23:04:01.210Z,4.55
2019-02-18T23:07:07.452Z,4.44
2019-02-18T23:10:13.828Z,4.48
2019-02-18T23:13:20.259Z,4.43
2019-02-18T23:16:26.666Z,4.38
2019-02-18T23:19:33.081Z,4.34
2019-02-18T23:22:39.564Z,4.34
2019-02-18T23:25:45.891Z,4.41
2019-02-18T23:28:52.618Z,4.51
2019-02-18T23:31:59.079Z,4.51
2019-02-18T23:35:05.362Z,4.44
2019-02-18T23:38:11.986Z,4.37
2019-02-18T23:41:18.572Z,4.37
2019-02-18T23:44:25.910Z,4.38
2019-02-18T23:47:32.271Z,4.37
2019-02-18T23:50:38.540Z,4.39
2019-02-18T23:53:44.979Z,4.43
2019-02-18T23:56:51.329Z,4.29
2019-02-18T23:59:57.701Z,4.25
